createdAt,value
2019-01-28T00:02:51.431Z,98543.93
2019-01-28T00:05:55.109Z,98544.68
2019-01-28T00:08:58.480Z,98550.81
2019-01-28T00:12:01.853Z,98556.06
2019-01-28T00:15:26.004Z,98553.84
2019-01-28T00:18:29.378Z,98558.98
2019-01-28T00:21:32.763Z,98555.38
2019-01-28T00:24:36.129Z,98548.80
2019-01-28T00:27:39.518Z,98549.31
2019-01-28T00:30:42.951Z,98543.39
2019-01-28T00:33:46.334Z,98545.06
2019-01-28T00:36:49.715Z,98543.78
2019-01-28T00:39:53.069Z,98542.26
2019-01-28T00:43:36.367Z,98536.15
2019-01-28T00:46:39.758Z,98535.77
2019-01-28T00:49:43.132Z,98539.23
2019-01-28T00:52:46.733Z,98539.62
2019-01-28T00:55:50.093Z,98541.33
2019-01-28T00:58:53.476Z,98529.27
2019-01-28T01:01:56.869Z,98536.73
2019-01-28T01:05:00.269Z,98531.95
2019-01-28T01:08:03.726Z,98528.52
2019-01-28T01:11:07.150Z,98537.23
2019-01-28T01:14:10.778Z,98536.38
2019-01-28T01:17:14.155Z,98538.08
2019-01-28T01:20:17.960Z,98539.69
2019-01-28T01:23:21.340Z,98543.32
2019-01-28T01:26:24.705Z,98538.05
2019-01-28T01:29:28.084Z,98543.15
2019-01-28T01:32:31.507Z,98547.39
2019-01-28T01:35:34.855Z,98540.62
2019-01-28T01:38:38.240Z,98545.25
2019-01-28T01:41:41.610Z,98536.02
2019-01-28T01:44:44.990Z,98549.70
2019-01-28T01:47:48.357Z,98541.47
2019-01-28T01:50:51.735Z,98535.52
2019-01-28T01:53:55.112Z,98525.67
2019-01-28T01:56:58.479Z,98531.31
2019-01-28T02:00:01.860Z,98527.42
2019-01-28T02:03:05.371Z,98531.20
2019-01-28T02:06:08.886Z,98533.45
2019-01-28T02:09:12.261Z,98527.92
2019-01-28T02:12:15.624Z,98521.47
2019-01-28T02:15:19.513Z,98513.44
2019-01-28T02:18:22.829Z,98512.16
2019-01-28T02:21:26.884Z,98505.70
2019-01-28T02:24:30.260Z,98499.72
2019-01-28T02:27:33.626Z,98498.01
2019-01-28T02:30:37.008Z,98501.36
2019-01-28T02:33:40.372Z,98502.95
2019-01-28T02:36:43.748Z,98497.05
2019-01-28T02:39:47.219Z,98490.30
2019-01-28T02:42:50.591Z,98483.85
2019-01-28T02:45:53.967Z,98483.74
2019-01-28T02:48:57.334Z,98484.35
2019-01-28T02:52:00.716Z,98480.81
2019-01-28T02:55:05.519Z,98479.50
2019-01-28T02:58:08.965Z,98485.67
2019-01-28T03:01:12.650Z,98471.55
2019-01-28T03:04:16.018Z,98472.34
2019-01-28T03:07:19.398Z,98479.19
2019-01-28T03:10:22.923Z,98469.34
2019-01-28T03:13:26.363Z,98462.11
2019-01-28T03:16:29.735Z,98459.61
2019-01-28T03:19:33.106Z,98449.74
2019-01-28T03:22:36.483Z,98448.50
2019-01-28T03:25:39.853Z,98445.03
2019-01-28T03:28:43.233Z,98441.22
2019-01-28T03:31:46.598Z,98433.98
2019-01-28T03:34:49.977Z,98439.23
2019-01-28T03:37:53.345Z,98423.30
2019-01-28T03:40:56.961Z,98430.99
2019-01-28T03:44:00.334Z,98422.02
2019-01-28T03:47:03.781Z,98415.31
2019-01-28T03:50:10.078Z,98412.68
2019-01-28T03:53:14.457Z,98410.89
2019-01-28T03:56:17.825Z,98419.29
2019-01-28T03:59:21.269Z,98404.91
2019-01-28T04:02:24.634Z,98394.75
2019-01-28T04:05:28.103Z,98404.94
2019-01-28T04:08:31.482Z,98410.81
2019-01-28T04:11:34.849Z,98404.12
2019-01-28T04:14:38.225Z,98398.56
2019-01-28T04:17:41.588Z,98391.80
2019-01-28T04:20:44.978Z,98374.92
2019-01-28T04:23:48.340Z,98381.41
2019-01-28T04:26:51.699Z,98374.53
2019-01-28T04:29:55.077Z,98375.45
2019-01-28T04:32:58.672Z,98379.77
2019-01-28T04:36:02.043Z,98382.69
2019-01-28T04:39:07.257Z,98389.72
2019-01-28T04:42:12.152Z,98385.74
2019-01-28T04:45:17.569Z,98384.63
2019-01-28T04:48:20.936Z,98367.96
2019-01-28T04:51:24.305Z,98380.78
2019-01-28T04:54:27.666Z,98382.12
2019-01-28T04:57:31.035Z,98382.06
2019-01-28T05:00:34.412Z,98387.22
2019-01-28T05:03:38.011Z,98382.06
2019-01-28T05:06:43.380Z,98378.44
2019-01-28T05:09:46.758Z,98382.03
2019-01-28T05:12:50.181Z,98370.95
2019-01-28T05:15:53.559Z,98369.89
2019-01-28T05:18:56.934Z,98367.66
2019-01-28T05:22:00.302Z,98373.45
2019-01-28T05:25:04.641Z,98369.57
2019-01-28T05:28:08.032Z,98368.19
2019-01-28T05:31:11.379Z,98366.91
2019-01-28T05:34:14.750Z,98367.00
2019-01-28T05:37:18.192Z,98372.89
2019-01-28T05:40:23.915Z,98358.56
2019-01-28T05:43:27.272Z,98362.02
2019-01-28T05:46:30.649Z,98359.31
2019-01-28T05:49:34.282Z,98353.53
2019-01-28T05:52:37.720Z,98361.28
2019-01-28T05:55:41.097Z,98359.17
2019-01-28T05:58:44.530Z,98367.63
2019-01-28T06:01:47.903Z,98358.62
2019-01-28T06:04:51.278Z,98365.13
2019-01-28T06:07:54.659Z,98360.43
2019-01-28T06:10:58.283Z,98365.06
2019-01-28T06:14:01.652Z,98354.78
2019-01-28T06:17:05.169Z,98365.49
2019-01-28T06:20:11.575Z,98364.08
2019-01-28T06:23:14.959Z,98362.80
2019-01-28T06:26:18.326Z,98367.20
2019-01-28T06:29:21.691Z,98371.05
2019-01-28T06:32:25.067Z,98362.56
2019-01-28T06:35:28.503Z,98365.13
2019-01-28T06:38:31.873Z,98366.64
2019-01-28T06:41:35.241Z,98359.48
2019-01-28T06:44:38.624Z,98363.63
2019-01-28T06:47:46.649Z,98362.80
2019-01-28T06:50:47.499Z,98361.87
2019-01-28T06:53:50.866Z,98370.49
2019-01-28T06:56:54.564Z,98372.50
2019-01-28T06:59:57.929Z,98367.11
2019-01-28T07:03:01.375Z,98382.52
2019-01-28T07:06:05.075Z,98385.51
2019-01-28T07:09:09.684Z,98386.00
2019-01-28T07:12:13.058Z,98392.74
2019-01-28T07:15:19.256Z,98402.20
2019-01-28T07:18:22.629Z,98394.88
2019-01-28T07:21:25.996Z,98395.24
2019-01-28T07:24:29.373Z,98395.05
2019-01-28T07:27:32.735Z,98401.43
2019-01-28T07:30:37.249Z,98407.17
2019-01-28T07:33:40.631Z,98408.75
2019-01-28T07:36:44.003Z,98411.69
2019-01-28T07:39:47.396Z,98413.52
2019-01-28T07:42:50.768Z,98425.33
2019-01-28T07:45:54.141Z,98421.88
2019-01-28T07:48:57.522Z,98423.67
2019-01-28T07:52:00.903Z,98425.81
2019-01-28T07:55:44.194Z,98430.45
2019-01-28T07:58:47.564Z,98433.81
2019-01-28T08:01:50.935Z,98436.75
2019-01-28T08:04:54.321Z,98436.75
2019-01-28T08:07:57.680Z,98436.32
2019-01-28T08:11:01.052Z,98436.41
2019-01-28T08:14:44.351Z,98445.00
2019-01-28T08:18:10.843Z,98448.88
2019-01-28T08:21:12.426Z,98448.00
2019-01-28T08:24:15.792Z,98456.88
2019-01-28T08:27:19.178Z,98462.44
2019-01-28T08:30:43.345Z,98466.17
2019-01-28T08:33:46.707Z,98459.31
2019-01-28T08:36:50.079Z,98460.59
2019-01-28T08:39:53.477Z,98460.11
2019-01-28T08:42:56.994Z,98467.00
2019-01-28T08:46:00.392Z,98471.73
2019-01-28T08:49:24.397Z,98467.00
2019-01-28T08:52:27.788Z,98472.38
2019-01-28T08:55:31.228Z,98476.17
2019-01-28T08:58:34.598Z,98477.09
2019-01-28T09:01:38.051Z,98475.74
2019-01-28T09:04:41.570Z,98477.02
2019-01-28T09:07:45.020Z,98484.56
2019-01-28T09:10:48.537Z,98476.80
2019-01-28T09:13:51.905Z,98487.09
2019-01-28T09:16:55.285Z,98487.19
2019-01-28T09:19:59.050Z,98493.14
2019-01-28T09:23:03.828Z,98504.98
2019-01-28T09:26:07.264Z,98504.33
2019-01-28T09:29:10.644Z,98509.33
2019-01-28T09:32:14.015Z,98507.95
2019-01-28T09:35:17.524Z,98521.64
2019-01-28T09:38:20.973Z,98528.88
2019-01-28T09:41:24.338Z,98527.52
2019-01-28T09:44:27.719Z,98533.58
2019-01-28T09:47:31.104Z,98535.62
2019-01-28T09:50:34.546Z,98547.63
2019-01-28T09:53:37.919Z,98560.56
2019-01-28T09:56:41.534Z,98554.15
2019-01-28T09:59:44.976Z,98553.48
2019-01-28T10:02:48.346Z,98574.19
2019-01-28T10:05:51.723Z,98573.07
2019-01-28T10:08:55.093Z,98581.13
2019-01-28T10:11:58.473Z,98597.75
2019-01-28T10:15:02.085Z,98590.41
2019-01-28T10:18:05.691Z,98595.39
2019-01-28T10:21:09.454Z,98612.08
2019-01-28T10:24:12.821Z,98615.11
2019-01-28T10:27:16.194Z,98625.26
2019-01-28T10:30:59.739Z,98622.69
2019-01-28T10:34:03.137Z,98625.72
2019-01-28T10:37:06.681Z,98638.73
2019-01-28T10:40:49.966Z,98647.69
2019-01-28T10:43:53.344Z,98635.25
2019-01-28T10:46:56.807Z,98657.16
2019-01-28T10:50:00.288Z,98646.41
2019-01-28T10:53:03.801Z,98660.84
2019-01-28T10:56:07.239Z,98664.41
2019-01-28T10:59:10.630Z,98672.42
2019-01-28T11:02:33.427Z,98669.16
2019-01-28T11:05:56.198Z,98670.95
2019-01-28T11:08:59.565Z,98679.12
2019-01-28T11:12:03.068Z,98687.94
2019-01-28T11:15:46.383Z,98697.92
2019-01-28T11:18:57.370Z,98703.83
2019-01-28T11:21:55.191Z,98709.46
2019-01-28T11:24:58.607Z,98699.13
2019-01-28T11:28:02.146Z,98711.51
2019-01-28T11:31:17.957Z,98726.84
2019-01-28T11:34:21.426Z,98724.28
2019-01-28T11:37:24.748Z,98727.34
2019-01-28T11:40:28.210Z,98723.38
2019-01-28T11:43:50.931Z,98741.95
2019-01-28T11:47:13.681Z,98750.42
2019-01-28T11:50:18.038Z,98750.83
2019-01-28T11:53:21.505Z,98757.66
2019-01-28T11:56:44.219Z,98759.81
2019-01-28T11:59:47.632Z,98767.13
2019-01-28T12:02:51.020Z,98778.72
2019-01-28T12:05:54.561Z,98781.20
2019-01-28T12:08:57.943Z,98789.36
2019-01-28T12:12:21.422Z,98795.78
2019-01-28T12:15:25.044Z,98798.69
2019-01-28T12:18:28.424Z,98809.38
2019-01-28T12:21:31.865Z,98812.36
2019-01-28T12:24:54.589Z,98814.01
2019-01-28T12:27:57.957Z,98823.91
2019-01-28T12:31:01.347Z,98828.14
2019-01-28T12:34:04.797Z,98834.55
2019-01-28T12:37:27.517Z,98838.41
2019-01-28T12:40:30.906Z,98860.23
2019-01-28T12:43:34.351Z,98861.53
2019-01-28T12:46:37.968Z,98862.79
2019-01-28T12:49:41.353Z,98867.08
2019-01-28T12:52:44.814Z,98870.05
2019-01-28T12:55:48.190Z,98871.78
2019-01-28T12:59:10.902Z,98884.64
2019-01-28T13:02:14.279Z,98904.34
2019-01-28T13:05:57.593Z,98900.04
2019-01-28T13:09:00.964Z,98906.87
2019-01-28T13:15:54.927Z,98908.18
2019-01-28T13:18:58.327Z,98917.96
2019-01-28T13:22:01.715Z,98917.94
2019-01-28T13:25:25.869Z,98920.98
2019-01-28T13:28:29.249Z,98933.41
2019-01-28T13:31:45.257Z,98930.41
2019-01-28T13:34:48.694Z,98953.12
2019-01-28T13:37:52.071Z,98974.98
2019-01-28T13:40:55.449Z,98976.27
2019-01-28T13:43:58.822Z,98984.00
2019-01-28T13:47:02.260Z,98985.69
2019-01-28T13:50:08.725Z,99008.34
2019-01-28T13:53:12.440Z,99006.19
2019-01-28T13:56:15.806Z,99012.23
2019-01-28T13:59:19.191Z,99030.19
2019-01-28T14:02:22.564Z,99026.37
2019-01-28T14:05:27.106Z,99038.77
2019-01-28T14:08:30.486Z,99043.06
2019-01-28T14:11:33.856Z,99036.67
2019-01-28T14:14:37.229Z,99052.45
2019-01-28T14:17:40.616Z,99049.88
2019-01-28T14:20:43.975Z,99060.17
2019-01-28T14:23:47.347Z,99064.00
2019-01-28T14:26:50.707Z,99061.84
2019-01-28T14:29:54.082Z,99080.73
2019-01-28T14:32:57.442Z,99083.30
2019-01-28T14:36:00.819Z,99086.25
2019-01-28T14:39:13.521Z,99091.84
2019-01-28T14:42:12.526Z,99096.13
2019-01-28T14:45:16.126Z,99111.11
2019-01-28T14:48:19.498Z,99114.94
2019-01-28T14:51:22.880Z,99117.52
2019-01-28T14:54:26.238Z,99131.63
2019-01-28T14:57:29.618Z,99147.48
2019-01-28T15:00:35.636Z,99140.64
2019-01-28T15:03:39.016Z,99156.89
2019-01-28T15:06:42.394Z,99150.05
2019-01-28T15:09:45.759Z,99166.31
2019-01-28T15:12:49.275Z,99166.31
2019-01-28T15:15:52.660Z,99168.85
2019-01-28T15:18:56.025Z,99185.13
2019-01-28T15:21:59.419Z,99192.84
2019-01-28T15:25:02.842Z,99201.40
2019-01-28T15:28:06.361Z,99216.82
2019-01-28T15:31:09.992Z,99212.53
2019-01-28T15:34:13.427Z,99216.37
2019-01-28T15:37:16.796Z,99227.09
2019-01-28T15:40:28.733Z,99229.65
2019-01-28T15:43:35.332Z,99235.23
2019-01-28T15:46:45.645Z,99239.92
2019-01-28T15:49:49.019Z,99249.80
2019-01-28T15:52:52.395Z,99248.52
2019-01-28T15:55:55.761Z,99266.48
2019-01-28T15:58:59.155Z,99266.92
2019-01-28T16:02:03.687Z,99258.78
2019-01-28T16:05:09.639Z,99278.04
2019-01-28T16:08:13.087Z,99278.50
2019-01-28T16:11:16.459Z,99279.34
2019-01-28T16:14:20.872Z,99284.45
2019-01-28T16:17:24.575Z,99285.34
2019-01-28T16:20:34.251Z,99293.91
2019-01-28T16:23:37.639Z,99296.03
2019-01-28T16:26:41.988Z,99300.73
2019-01-28T16:29:45.444Z,99302.89
2019-01-28T16:32:49.293Z,99310.61
2019-01-28T16:35:58.997Z,99316.61
2019-01-28T16:39:02.382Z,99320.89
2019-01-28T16:42:05.749Z,99322.61
2019-01-28T16:45:12.060Z,99339.72
2019-01-28T16:48:18.814Z,99337.17
2019-01-28T16:51:22.156Z,99346.59
2019-01-28T16:54:37.477Z,99355.98
2019-01-28T16:57:41.384Z,99372.70
2019-01-28T17:00:44.835Z,99374.39
2019-01-28T17:03:48.197Z,99377.84
2019-01-28T17:06:52.487Z,99394.11
2019-01-28T17:09:55.879Z,99391.56
2019-01-28T17:12:59.257Z,99407.83
2019-01-28T17:16:02.641Z,99409.53
2019-01-28T17:19:08.290Z,99418.55
2019-01-28T17:22:13.581Z,99427.55
2019-01-28T17:25:19.770Z,99432.70
2019-01-28T17:28:23.216Z,99439.98
2019-01-28T17:31:26.613Z,99441.25
2019-01-28T17:34:29.988Z,99447.67
2019-01-28T17:37:33.364Z,99453.70
2019-01-28T17:40:37.579Z,99458.86
2019-01-28T17:43:40.946Z,99471.25
2019-01-28T17:46:44.320Z,99471.23
2019-01-28T17:49:47.693Z,99472.08
2019-01-28T17:52:51.410Z,99483.70
2019-01-28T17:55:54.783Z,99486.72
2019-01-28T17:58:58.160Z,99492.72
2019-01-28T18:02:01.535Z,99502.10
2019-01-28T18:05:07.549Z,99512.38
2019-01-28T18:08:10.921Z,99519.20
2019-01-28T18:11:17.431Z,99525.22
2019-01-28T18:14:20.804Z,99526.50
2019-01-28T18:17:24.176Z,99533.78
2019-01-28T18:20:28.527Z,99540.22
2019-01-28T18:23:34.019Z,99545.33
2019-01-28T18:26:37.447Z,99546.16
2019-01-28T18:29:41.213Z,99555.06
2019-01-28T18:32:44.587Z,99557.28
2019-01-28T18:35:56.776Z,99563.72
2019-01-28T18:39:00.146Z,99560.61
2019-01-28T18:42:03.571Z,99578.09
2019-01-28T18:45:17.996Z,99576.81
2019-01-28T18:48:15.095Z,99576.33
2019-01-28T18:51:18.467Z,99581.92
2019-01-28T18:54:21.859Z,99596.86
2019-01-28T18:57:25.224Z,99588.78
2019-01-28T19:00:30.882Z,99592.99
2019-01-28T19:03:35.171Z,99593.34
2019-01-28T19:06:40.195Z,99609.18
2019-01-28T19:09:44.047Z,99608.39
2019-01-28T19:12:49.065Z,99623.27
2019-01-28T19:16:05.179Z,99626.73
2019-01-28T19:19:10.206Z,99625.44
2019-01-28T19:22:22.291Z,99638.42
2019-01-28T19:25:25.670Z,99648.16
2019-01-28T19:28:29.044Z,99656.39
2019-01-28T19:31:32.436Z,99657.56
2019-01-28T19:34:35.812Z,99668.37
2019-01-28T19:37:39.178Z,99676.05
2019-01-28T19:40:42.595Z,99675.66
2019-01-28T19:43:45.956Z,99683.76
2019-01-28T19:46:49.395Z,99695.75
2019-01-28T19:49:52.781Z,99694.91
2019-01-28T19:52:56.158Z,99703.78
2019-01-28T19:55:59.525Z,99711.41
2019-01-28T19:59:02.886Z,99706.41
2019-01-28T20:02:46.171Z,99708.08
2019-01-28T20:05:49.661Z,99715.59
2019-01-28T20:08:53.028Z,99720.89
2019-01-28T20:11:56.397Z,99722.23
2019-01-28T20:15:00.111Z,99729.73
2019-01-28T20:18:03.630Z,99729.09
2019-01-28T20:21:06.998Z,99735.88
2019-01-28T20:24:10.459Z,99742.87
2019-01-28T20:27:13.814Z,99740.67
2019-01-28T20:30:36.551Z,99738.60
2019-01-28T20:33:39.920Z,99753.77
2019-01-28T20:36:43.292Z,99752.59
2019-01-28T20:43:01.218Z,99776.62
2019-01-28T20:49:34.126Z,99779.92
2019-01-28T20:52:37.491Z,99782.16
2019-01-28T20:55:40.871Z,99779.56
2019-01-28T20:58:44.234Z,99792.18
2019-01-28T21:01:47.603Z,99794.72
2019-01-28T21:04:50.993Z,99799.23
2019-01-28T21:07:54.589Z,99803.98
2019-01-28T21:10:57.992Z,99796.40
2019-01-28T21:14:01.433Z,99808.20
2019-01-28T21:17:44.716Z,99806.47
2019-01-28T21:20:48.330Z,99810.79
2019-01-28T21:23:51.712Z,99817.44
2019-01-28T21:26:55.344Z,99815.52
2019-01-28T21:29:58.718Z,99819.78
2019-01-28T21:33:02.153Z,99826.20
2019-01-28T21:36:25.907Z,99838.11
2019-01-28T21:39:29.203Z,99830.02
2019-01-28T21:42:32.575Z,99825.03
2019-01-28T21:45:55.550Z,99833.30
2019-01-28T21:48:58.959Z,99833.58
2019-01-28T21:52:02.344Z,99832.94
2019-01-28T21:55:45.611Z,99837.13
2019-01-28T21:58:49.032Z,99839.13
2019-01-28T22:01:52.496Z,99847.09
2019-01-28T22:04:55.870Z,99847.48
2019-01-28T22:07:59.245Z,99851.75
2019-01-28T22:11:02.606Z,99848.14
2019-01-28T22:14:25.338Z,99862.85
2019-01-28T22:17:28.875Z,99858.09
2019-01-28T22:20:32.258Z,99868.92
2019-01-28T22:23:35.641Z,99865.65
2019-01-28T22:26:58.354Z,99877.66
2019-01-28T22:30:01.731Z,99867.28
2019-01-28T22:33:24.444Z,99881.52
2019-01-28T22:36:27.804Z,99880.13
2019-01-28T22:39:31.177Z,99883.77
2019-01-28T22:42:34.559Z,99885.42
2019-01-28T22:45:37.936Z,99883.98
2019-01-28T22:48:41.341Z,99891.95
2019-01-28T22:51:44.712Z,99885.36
2019-01-28T22:55:08.685Z,99888.11
2019-01-28T22:58:31.386Z,99898.41
2019-01-28T23:02:14.730Z,99897.67
2019-01-28T23:05:18.219Z,99892.41
2019-01-28T23:08:21.588Z,99897.09
2019-01-28T23:11:25.032Z,99901.67
2019-01-28T23:14:28.419Z,99904.95
2019-01-28T23:17:31.866Z,99904.31
2019-01-28T23:20:35.307Z,99916.58
2019-01-28T23:23:38.617Z,99912.28
2019-01-28T23:26:42.004Z,99913.41
2019-01-28T23:29:45.360Z,99921.03
2019-01-28T23:32:48.735Z,99926.20
2019-01-28T23:35:52.123Z,99933.04
2019-01-28T23:38:55.580Z,99931.23
2019-01-28T23:41:58.966Z,99930.28
2019-01-28T23:45:02.337Z,99937.11
2019-01-28T23:48:05.773Z,99942.55
2019-01-28T23:51:09.181Z,99948.29
2019-01-28T23:54:12.572Z,99940.17
2019-01-28T23:57:15.957Z,99943.87
